• Join FlightAware (Why Join?)
  • Login
  • US Flag 
10:20PM EDT


 

Airport Tracker/Info


-or-


 

Live Flight TrackerFlight Track Log ✈ SWA303 ✈ 21-Apr-2013 ✈ KDEN - KIAD

Flight Track Log - Related Links

Times and Time Zones

All times are in EDT time to prevent confusion due to time zone crossing. See the SWA303 flight status page for this flight to view local times or setup timezone preferences in your user account.

Time Position Orientation Groundspeed Altitude Reporting Facility
EDT Latitude Longitude Course Direction KTS MPH feet Rate Location/Type
02:21PM 39.8761 -104.5917 69° East 175 201 6,900  Level Denver Center
02:22PM 39.8833 -104.5667 69° East 196 226 7,500 2,100 Climbing Denver TRACON
02:24PM 39.8736 -104.3894 94° East 305 351 11,300 2,520 Climbing Denver Center
02:25PM 39.8733 -104.2622 90° East 351 404 14,700 3,060 Climbing Denver Center
02:26PM 39.8728 -104.1181 90° East 371 427 17,600 2,520 Climbing Denver Center
02:27PM 39.8708 -103.9753 91° East 395 455 20,000 2,400 Climbing Denver Center
02:28PM 39.8758 -103.8261 87° East 412 474 22,600 2,340 Climbing Denver Center
02:29PM 39.8922 -103.6625 83° East 410 472 24,900 1,980 Climbing Denver Center
02:30PM 39.9103 -103.5011 82° East 441 507 26,700 1,740 Climbing Denver Center
02:31PM 39.9292 -103.3339 82° East 461 531 28,500 1,560 Climbing Denver Center
02:32PM 39.9489 -103.1625 81° East 471 542 30,000 1,320 Climbing Denver Center
02:33PM 39.9697 -102.9867 81° East 486 559 31,300 1,380 Climbing Denver Center
02:34PM 39.9869 -102.8053 83° East 500 575 32,900 1,560 Climbing Denver Center
02:35PM 40.0072 -102.6133 82° East 496 571 34,600 1,500 Climbing Denver Center
02:36PM 40.0258 -102.4453 82° East 490 564 36,000 1,140 Climbing Denver Center
02:37PM 40.0450 -102.2483 83° East 490 564 37,000 480 Climbing Denver Center
02:38PM 40.0642 -102.0778 82° East 496 571 37,000  Level Denver Center
02:39PM 40.0831 -101.8839 83° East 485 558 37,000  Level Denver Center
02:40PM 40.0986 -101.7172 83° East 485 558 37,000  Level Denver Center
02:41PM 40.1164 -101.5228 83° East 484 557 37,000  Level Denver Center
02:42PM 40.1331 -101.3592 82° East 479 551 37,000  Level Denver Center
02:43PM 40.1519 -101.1669 83° East 479 551 37,000  Level Denver Center
02:44PM 40.1669 -101.0019 83° East 479 551 37,000  Level Denver Center
02:45PM 40.1844 -100.8086 83° East 482 555 37,000  Level Denver Center
02:46PM 40.1986 -100.6422 84° East 484 557 37,000  Level Denver Center
02:47PM 40.2069 -100.4464 87° East 487 560 37,000  Level Denver Center
02:48PM 40.2086 -100.2753 89° East 493 567 37,000  Level Denver Center
02:49PM 40.2114 -100.1067 89° East 489 563 37,000  Level Denver Center
02:50PM 40.2133 -99.9078 89° East 493 567 37,000  Level Denver Center
02:51PM 40.2167 -99.7319 89° East 490 564 37,000  Level Denver Center
02:52PM 40.2172 -99.5533 90° East 492 566 37,000  Level Denver Center
02:53PM 40.2194 -99.3775 89° East 489 563 37,000  Level Denver Center
02:54PM 40.2256 -99.2031 87° East 485 558 37,000  Level Denver Center
02:55PM 40.2306 -98.9919 88° East 486 559 37,000  Level Denver Center
02:57PM 40.2344 -98.8156 88° East 488 562 37,000  Level Denver Center
02:58PM 40.2381 -98.6392 88° East 487 560 37,000  Level Denver Center
02:58PM 40.2383 -98.6039 89° East 488 562 37,000  Level Minneapolis Center
02:59PM 40.2408 -98.4283 89° East 487 560 37,000  Level Minneapolis Center
03:00PM 40.2433 -98.2525 89° East 486 559 37,000  Level Minneapolis Center
03:01PM 40.2469 -98.0414 89° East 486 559 37,000  Level Minneapolis Center
03:02PM 40.2494 -97.8636 89° East 489 563 37,000  Level Minneapolis Center
03:03PM 40.2517 -97.6858 89° East 490 564 37,000  Level Minneapolis Center
03:04PM 40.2522 -97.5097 90° East 487 560 37,000  Level Minneapolis Center
03:05PM 40.2539 -97.3344 89° East 485 558 37,000  Level Minneapolis Center
03:06PM 40.2556 -97.1619 89° East 486 559 37,000  Level Minneapolis Center
03:07PM 40.2561 -96.9864 90° East 485 558 37,000  Level Minneapolis Center
03:08PM 40.2567 -96.8111 90° East 484 557 37,000  Level Minneapolis Center
03:09PM 40.2564 -96.6006 90° East 485 558 37,000  Level Minneapolis Center
03:10PM 40.2575 -96.4250 89° East 484 557 37,000  Level Minneapolis Center
03:11PM 40.2569 -96.2481 90° East 488 562 37,000  Level Minneapolis Center
03:12PM 40.2558 -96.0739 90° East 485 558 37,000  Level Minneapolis Center
03:13PM 40.2550 -95.8969 90° East 486 559 37,000  Level Minneapolis Center
03:14PM 40.2550 -95.7225 90° East 485 558 37,000  Level Minneapolis Center
03:15PM 40.2536 -95.5497 91° East 479 551 37,000  Level Minneapolis Center
03:16PM 40.2525 -95.3422 90° East 478 550 37,000  Level Minneapolis Center
03:17PM 40.2503 -95.1703 91° East 476 548 37,000 240 Level Minneapolis Center
03:18PM 40.2489 -94.9958 91° East 479 551 37,600 780 Climbing Minneapolis Center
03:19PM 40.2472 -94.8183 91° East 485 558 38,600 660 Climbing Minneapolis Center
03:20PM 40.2433 -94.6422 92° East 486 559 39,000 180 Climbing Minneapolis Center
03:21PM 40.2400 -94.4586 91° East 489 563 39,000  Level Minneapolis Center
03:22PM 40.2381 -94.2808 91° East 491 565 39,000  Level Minneapolis Center
03:23PM 40.2342 -94.2206 95° East 488 562 39,000  Level Kansas City Center
03:24PM 40.2281 -94.0361 92° East 488 562 39,000  Level Kansas City Center
03:25PM 40.2242 -93.8628 92° East 485 558 39,000  Level Kansas City Center
03:26PM 40.2194 -93.6900 92° East 480 552 39,000  Level Kansas City Center
03:27PM 40.2169 -93.5189 91° East 477 549 39,000  Level Kansas City Center
03:28PM 40.2108 -93.3117 92° East 480 552 39,000  Level Kansas City Center
03:29PM 40.2072 -93.1397 92° East 478 550 39,000  Level Kansas City Center
03:30PM 40.2019 -92.9669 92° East 476 548 39,000  Level Kansas City Center
03:31PM 40.1967 -92.8017 92° East 475 547 39,000  Level Kansas City Center
03:32PM 40.1903 -92.6067 92° East 481 554 39,000  Level Kansas City Center
03:33PM 40.1886 -92.4414 91° East 479 551 39,000  Level Kansas City Center
03:34PM 40.1803 -92.2553 93° East 486 559 39,000  Level Kansas City Center
03:35PM 40.1728 -92.0819 93° East 486 559 39,000  Level Kansas City Center
03:36PM 40.1669 -91.9067 92° East 486 559 39,000  Level Kansas City Center
03:37PM 40.1578 -91.6964 93° East 488 562 39,000  Level Kansas City Center
03:38PM 40.1503 -91.5225 93° East 485 558 39,000  Level Kansas City Center
03:39PM 40.1444 -91.3486 92° East 484 557 39,000  Level Kansas City Center
03:40PM 40.1356 -91.1756 94° East 481 554 39,000  Level Kansas City Center
03:41PM 40.1278 -91.0031 93° East 480 552 39,000  Level Kansas City Center
03:42PM 40.1183 -90.8103 94° East 476 548 39,000  Level Kansas City Center
03:43PM 40.1089 -90.6383 94° East 475 547 39,000  Level Kansas City Center
03:44PM 40.1008 -90.4675 93° East 475 547 39,000  Level Kansas City Center
03:45PM 40.0933 -90.3314 94° East 474 545 39,000  Level Chicago Center
03:46PM 40.0836 -90.1608 94° East 475 547 39,000  Level Chicago Center
03:48PM 40.0664 -89.8514 94° East 479 551 39,000  Level Chicago Center
03:49PM 40.0614 -89.7478 94° East 478 550 39,000  Level Kansas City Center
03:50PM 40.0508 -89.5744 94° East 479 551 39,000  Level Kansas City Center
03:50PM 40.0442 -89.4739 95° East 478 550 39,000  Level Chicago Center
03:51PM 40.0344 -89.3017 94° East 477 549 39,000  Level Chicago Center
03:52PM 40.0278 -89.1964 95° East 478 550 39,000  Level Kansas City Center
03:53PM 40.0164 -89.0264 95° East 475 547 39,000  Level Kansas City Center
03:54PM 40.0058 -88.8564 95° East 473 544 39,000  Level Kansas City Center
03:55PM 39.9894 -88.5892 94° East 474 545 39,000  Level Indianapolis Center
03:56PM 39.9836 -88.5147 96° East 474 545 39,000  Level Kansas City Center
03:57PM 39.9739 -88.3433 94° East 475 547 39,000  Level Kansas City Center
03:57PM 39.9644 -88.2425 97° East 474 545 39,000  Level Chicago Center
03:58PM 39.9519 -88.0728 95° East 472 543 39,000  Level Chicago Center
03:59PM 39.9392 -87.9000 95° East 477 549 39,000  Level Chicago Center
04:00PM 39.9256 -87.7133 95° East 476 548 39,000  Level Chicago Center
04:01PM 39.9094 -87.5225 96° East 479 551 39,000  Level Indianapolis Center
04:02PM 39.8969 -87.3519 95° East 474 545 39,000  Level Indianapolis Center
04:03PM 39.8825 -87.1814 96° East 472 543 39,000  Level Indianapolis Center
04:04PM 39.8697 -87.0111 96° East 470 541 39,000  Level Indianapolis Center
04:06PM 39.8558 -86.8408 96° East 470 541 39,000  Level Indianapolis Center
04:07PM 39.8408 -86.6686 96° East 474 545 39,000  Level Indianapolis Center
04:08PM 39.8247 -86.4978 97° East 474 545 39,000  Level Indianapolis Center
04:09PM 39.8147 -86.3236 94° East 477 549 39,000  Level Indianapolis Center
04:10PM 39.8297 -86.1108 85° East 489 563 39,000  Level Indianapolis Center
04:11PM 39.8397 -85.9364 86° East 485 558 39,000  Level Indianapolis Center
04:12PM 39.8497 -85.7686 86° East 486 559 39,000  Level Indianapolis Center
04:13PM 39.8572 -85.5928 87° East 484 557 39,000  Level Indianapolis Center
04:14PM 39.8669 -85.4164 86° East 483 556 39,000  Level Indianapolis Center
04:15PM 39.8781 -85.2119 86° East 483 556 39,000  Level Indianapolis Center
04:16PM 39.8867 -85.0367 86° East 482 555 39,000  Level Indianapolis Center
04:17PM 39.8953 -84.8606 86° East 482 555 39,000  Level Indianapolis Center
04:18PM 39.9036 -84.6856 86° East 482 555 39,000  Level Indianapolis Center
04:19PM 39.9119 -84.5094 86° East 482 555 39,000  Level Indianapolis Center
04:20PM 39.9203 -84.3333 86° East 484 557 39,000  Level Indianapolis Center
04:21PM 39.9275 -84.1567 87° East 486 559 39,000  Level Indianapolis Center
04:22PM 39.9344 -83.9806 87° East 482 555 39,000  Level Indianapolis Center
04:23PM 39.9419 -83.7731 87° East 486 559 39,000  Level Indianapolis Center
04:24PM 39.9489 -83.5942 87° East 484 557 39,000  Level Indianapolis Center
04:25PM 39.9553 -83.4144 87° East 479 551 39,000  Level Indianapolis Center
04:26PM 39.9617 -83.2353 87° East 482 555 39,000  Level Indianapolis Center
04:27PM 39.9658 -83.0581 88° East 482 555 39,000  Level Indianapolis Center
04:28PM 39.9700 -82.8819 88° East 481 554 39,000  Level Indianapolis Center
04:29PM 39.9761 -82.7050 87° East 484 557 39,000  Level Indianapolis Center
04:30PM 39.9800 -82.5272 88° East 486 559 39,000  Level Indianapolis Center
04:31PM 39.9539 -82.3542 101° East 485 558 39,000  Level Indianapolis Center
04:32PM 39.9269 -82.1819 101° East 481 554 39,000  Level Indianapolis Center
04:33PM 39.9019 -82.0092 101° East 481 554 39,000  Level Indianapolis Center
04:34PM 39.8717 -81.8089 101° East 481 554 39,000  Level Indianapolis Center
04:35PM 39.8456 -81.6367 101° East 480 552 39,000  Level Indianapolis Center
04:36PM 39.8336 -81.5781 105° East 474 545 39,000  Level Cleveland Center
04:37PM 39.8078 -81.4100 101° East 468 539 39,000  Level Cleveland Center
04:38PM 39.7858 -81.2394 99° East 473 544 39,000 -420 Level Cleveland Center
04:39PM 39.7575 -81.0719 102° East 473 544 38,200 -600 Descending Cleveland Center
04:40PM 39.7331 -80.9042 101° East 468 539 37,900 -660 Descending Cleveland Center
04:41PM 39.7064 -80.7394 102° East 468 539 36,900 -960 Descending Cleveland Center
04:42PM 39.6775 -80.5722 103° East 468 539 36,000 -960 Descending Cleveland Center
04:43PM 39.6500 -80.4050 102° East 468 539 35,000 -960 Descending Cleveland Center
04:44PM 39.6206 -80.2381 103° East 468 539 34,100 -1,020 Descending Cleveland Center
04:44PM 39.6050 -80.1383 101° East 467 537 33,400 -840 Descending Washington Center
04:45PM 39.5775 -79.9803 103° East 461 531 32,800 -1,320 Descending Washington Center
04:46PM 39.5519 -79.8253 102° East 454 522 30,800 -1,980 Descending Washington Center
04:47PM 39.5236 -79.6731 104° East 441 507 28,900 -1,800 Descending Washington Center
04:48PM 39.4994 -79.5264 102° East 428 493 27,200 -1,380 Descending Washington Center
04:49PM 39.4767 -79.3906 102° East 428 493 26,200 -1,260 Descending Washington Center
04:50PM 39.4464 -79.2250 103° East 423 487 24,700 -1,980 Descending Washington Center
04:51PM 39.4175 -79.0758 104° East 428 493 22,300 -2,220 Descending Washington Center
04:52PM 39.3925 -78.9297 102° East 423 487 20,300 -1,920 Descending Washington Center
04:53PM 39.3669 -78.7917 103° East 411 473 18,500 -1,740 Descending Washington Center
04:54PM 39.3433 -78.6644 103° East 388 447 16,900 -1,920 Descending Washington Center
04:55PM 39.3192 -78.5372 104° East 368 423 14,700 -2,100 Descending Washington Center
04:56PM 39.2972 -78.4131 103° East 357 411 12,700 -1,740 Descending Washington Center
04:57PM 39.2539 -78.3042 117° Southeast 352 405 11,200 -1,200 Descending Washington Center
04:58PM 39.1928 -78.2375 140° Southeast 311 358 10,300 -900 Descending Washington Center
04:59PM 39.1167 -78.1975 158° South 291 335 9,400 -960 Descending Washington Center
05:00PM 39.0422 -78.1625 160° South 286 329 8,400 -1,020 Descending Washington Center
05:01PM 38.9681 -78.1281 160° South 286 329 7,400 -1,020 Descending Washington Center
05:02PM 38.8978 -78.0936 159° South 286 329 6,400 -1,020 Descending Washington Center
05:03PM 38.8256 -78.0592 160° South 286 329 5,400 -720 Descending Washington Center
05:04PM 38.7575 -78.0222 157° South 281 323 5,000 -180 Descending Washington Center
05:05PM 38.7217 -77.9439 120° Southeast 254 292 5,100  Climbing Washington Center
05:07PM 38.7333 -77.7833 85° East 257 296 5,100 -60 Level Potomac TRACON
05:08PM 38.7333 -77.6833 90° East 249 287 5,000 -540 Descending Potomac TRACON
05:09PM 38.7333 -77.6000 90° East 222 255 4,100 -960 Descending Potomac TRACON
05:10PM 38.7500 -77.5333 72° East 229 264 3,100 -660 Descending Potomac TRACON
05:11PM 38.8000 -77.4833 38° Northeast 203 234 2,800 -480 Descending Potomac TRACON
05:12PM 38.8500 -77.4667 15° North 201 231 2,200 -840 Descending Potomac TRACON
05:13PM 38.9000 -77.4667 360° North 152 175 1,200 -960 Descending Potomac TRACON